Time,TemperatureF,DewpointF,PressureIn,WindDirection,WindDirectionDegrees,WindSpeedMPH,WindSpeedGustMPH,Humidity,HourlyPrecipIn,Conditions,Clouds,dailyrainin,SoftwareType,DateUTC
2013-03-30 00:02:00,37.0,31.0,30.18,North,0,0.0,0.0,79,0.00,,,0.00,,2013-03-30 04:02:00,
2013-03-30 00:12:00,37.0,31.0,30.18,North,0,0.0,0.0,79,0.00,,,0.00,,2013-03-30 04:12:00,
2013-03-30 00:23:00,37.0,31.0,30.18,North,0,0.0,0.0,80,0.00,,,0.00,,2013-03-30 04:23:00,
2013-03-30 00:32:00,36.0,31.0,30.18,North,0,0.0,0.0,82,0.00,,,0.00,,2013-03-30 04:32:00,
2013-03-30 00:43:00,36.0,31.0,30.18,North,0,0.0,0.0,82,0.00,,,0.00,,2013-03-30 04:43:00,
2013-03-30 00:52:00,36.0,31.0,30.18,North,0,0.0,0.0,82,0.00,,,0.00,,2013-03-30 04:52:00,
2013-03-30 01:02:00,36.0,31.0,30.17,North,0,0.0,0.0,82,0.00,,,0.00,,2013-03-30 05:02:00,
2013-03-30 01:12:00,36.0,31.0,30.17,North,0,0.0,0.0,82,0.00,,,0.00,,2013-03-30 05:12:00,
2013-03-30 01:22:00,36.0,31.0,30.17,North,0,0.0,0.0,83,0.00,,,0.00,,2013-03-30 05:22:00,
2013-03-30 01:32:00,36.0,31.0,30.17,North,0,0.0,0.0,83,0.00,,,0.00,,2013-03-30 05:32:00,
2013-03-30 01:42:00,36.0,31.0,30.17,North,0,0.0,0.0,83,0.00,,,0.00,,2013-03-30 05:42:00,
2013-03-30 01:52:00,35.0,30.0,30.17,North,0,0.0,0.0,83,0.00,,,0.00,,2013-03-30 05:52:00,
2013-03-30 02:02:00,34.0,30.0,30.17,North,0,0.0,0.0,84,0.00,,,0.00,,2013-03-30 06:02:00,
2013-03-30 02:12:00,34.0,30.0,30.17,North,0,0.0,0.0,84,0.00,,,0.00,,2013-03-30 06:12:00,
2013-03-30 02:23:00,34.0,30.0,30.17,North,0,0.0,0.0,86,0.00,,,0.00,,2013-03-30 06:23:00,
2013-03-30 02:32:00,34.0,31.0,30.16,North,0,0.0,0.0,87,0.00,,,0.00,,2013-03-30 06:32:00,
2013-03-30 02:42:00,34.0,31.0,30.16,North,0,0.0,0.0,87,0.00,,,0.00,,2013-03-30 06:42:00,
2013-03-30 02:52:00,34.0,31.0,30.16,North,0,0.0,0.0,87,0.00,,,0.00,,2013-03-30 06:52:00,
2013-03-30 03:02:00,33.0,30.0,30.15,North,0,0.0,0.0,88,0.00,,,0.00,,2013-03-30 07:02:00,
2013-03-30 03:12:00,33.0,30.0,30.15,North,0,0.0,0.0,88,0.00,,,0.00,,2013-03-30 07:12:00,
2013-03-30 03:22:00,33.0,30.0,30.15,North,0,0.0,0.0,89,0.00,,,0.00,,2013-03-30 07:22:00,
2013-03-30 03:32:00,33.0,30.0,30.15,North,0,0.0,0.0,90,0.00,,,0.00,,2013-03-30 07:32:00,
2013-03-30 03:42:00,33.0,30.0,30.15,North,0,0.0,0.0,90,0.00,,,0.00,,2013-03-30 07:42:00,
2013-03-30 03:52:00,33.0,31.0,30.16,North,0,0.0,0.0,91,0.00,,,0.00,,2013-03-30 07:52:00,
2013-03-30 04:02:00,33.0,31.0,30.16,North,0,0.0,0.0,91,0.00,,,0.00,,2013-03-30 08:02:00,
2013-03-30 04:12:00,33.0,31.0,30.16,North,0,0.0,0.0,91,0.00,,,0.00,,2013-03-30 08:12:00,
2013-03-30 04:22:00,33.0,31.0,30.16,North,0,0.0,0.0,91,0.00,,,0.00,,2013-03-30 08:22:00,
2013-03-30 04:32:00,33.0,31.0,30.16,North,0,0.0,0.0,91,0.00,,,0.00,,2013-03-30 08:32:00,
2013-03-30 04:42:00,33.0,31.0,30.16,North,0,0.0,0.0,91,0.00,,,0.00,,2013-03-30 08:42:00,
2013-03-30 04:53:00,32.0,30.0,30.16,North,0,0.0,0.0,91,0.00,,,0.00,,2013-03-30 08:53:00,
2013-03-30 05:02:00,32.0,30.0,30.16,North,0,0.0,0.0,92,0.00,,,0.00,,2013-03-30 09:02:00,
2013-03-30 05:12:00,33.0,31.0,30.16,North,0,0.0,0.0,92,0.00,,,0.00,,2013-03-30 09:12:00,
2013-03-30 05:22:00,33.0,31.0,30.16,North,0,0.0,0.0,92,0.00,,,0.00,,2013-03-30 09:22:00,
2013-03-30 05:33:00,33.0,31.0,30.16,North,0,0.0,0.0,92,0.00,,,0.00,,2013-03-30 09:33:00,
2013-03-30 05:43:00,33.0,31.0,30.16,North,0,0.0,0.0,92,0.00,,,0.00,,2013-03-30 09:43:00,
2013-03-30 05:53:00,34.0,32.0,30.16,North,0,0.0,0.0,91,0.00,,,0.00,,2013-03-30 09:53:00,
2013-03-30 06:02:00,34.0,32.0,30.16,North,0,0.0,0.0,91,0.00,,,0.00,,2013-03-30 10:02:00,
2013-03-30 06:13:00,34.0,32.0,30.16,North,0,0.0,0.0,91,0.00,,,0.00,,2013-03-30 10:13:00,
2013-03-30 06:23:00,34.0,32.0,30.16,North,0,0.0,0.0,91,0.00,,,0.00,,2013-03-30 10:23:00,
2013-03-30 06:33:00,34.0,31.0,30.17,North,0,0.0,0.0,90,0.00,,,0.00,,2013-03-30 10:33:00,
2013-03-30 06:42:00,34.0,31.0,30.17,North,0,0.0,0.0,90,0.00,,,0.00,,2013-03-30 10:42:00,
2013-03-30 06:52:00,34.0,32.0,30.17,North,0,0.0,0.0,91,0.00,,,0.00,,2013-03-30 10:52:00,
2013-03-30 07:04:00,34.0,32.0,30.18,North,0,0.0,0.0,91,0.00,,,0.00,,2013-03-30 11:04:00,
2013-03-30 07:12:00,34.0,32.0,30.18,North,0,0.0,0.0,91,0.00,,,0.00,,2013-03-30 11:12:00,
2013-03-30 07:22:00,34.0,32.0,30.19,North,0,0.0,0.0,91,0.00,,,0.00,,2013-03-30 11:22:00,
2013-03-30 07:33:00,34.0,32.0,30.19,North,0,0.0,0.0,92,0.00,,,0.00,,2013-03-30 11:33:00,
2013-03-30 07:43:00,34.0,32.0,30.19,North,0,0.0,0.0,92,0.00,,,0.00,,2013-03-30 11:43:00,
2013-03-30 07:53:00,35.0,33.0,30.19,North,0,0.0,0.0,92,0.00,,,0.00,,2013-03-30 11:53:00,
2013-03-30 08:02:00,35.0,33.0,30.19,North,0,0.0,0.0,92,0.00,,,0.00,,2013-03-30 12:02:00,
2013-03-30 08:12:00,35.0,33.0,30.19,North,0,0.0,0.0,92,0.00,,,0.00,,2013-03-30 12:12:00,
2013-03-30 08:22:00,35.0,33.0,30.21,North,0,0.0,0.0,93,0.00,,,0.00,,2013-03-30 12:22:00,
2013-03-30 08:33:00,36.0,34.0,30.21,North,0,0.0,0.0,93,0.00,,,0.00,,2013-03-30 12:33:00,
2013-03-30 08:43:00,36.0,34.0,30.21,North,0,0.0,0.0,93,0.00,,,0.00,,2013-03-30 12:43:00,
2013-03-30 08:53:00,38.0,36.0,30.21,North,0,0.0,0.0,92,0.00,,,0.00,,2013-03-30 12:53:00,
2013-03-30 09:02:00,39.0,37.0,30.21,North,0,0.0,0.0,91,0.00,,,0.00,,2013-03-30 13:02:00,
2013-03-30 09:12:00,39.0,37.0,30.21,North,0,0.0,0.0,91,0.00,,,0.00,,2013-03-30 13:12:00,
2013-03-30 09:22:00,41.0,38.0,30.22,North,0,0.0,0.0,89,0.00,,,0.00,,2013-03-30 13:22:00,
2013-03-30 09:32:00,43.0,38.0,30.22,North,0,0.0,0.0,84,0.00,,,0.00,,2013-03-30 13:32:00,
2013-03-30 09:42:00,43.0,38.0,30.22,North,0,0.0,0.0,84,0.00,,,0.00,,2013-03-30 13:42:00,
2013-03-30 09:52:00,47.0,35.0,30.22,North,0,0.0,2.0,64,0.00,,,0.00,,2013-03-30 13:52:00,
2013-03-30 10:03:00,48.0,36.0,30.22,North,0,0.0,2.0,62,0.00,,,0.00,,2013-03-30 14:03:00,
2013-03-30 10:12:00,48.0,36.0,30.22,North,0,0.0,2.0,62,0.00,,,0.00,,2013-03-30 14:12:00,
2013-03-30 10:23:00,49.0,37.0,30.22,North,0,0.0,2.0,64,0.00,,,0.00,,2013-03-30 14:23:00,
2013-03-30 10:32:00,50.0,37.0,30.22,North,0,0.0,3.0,60,0.00,,,0.00,,2013-03-30 14:32:00,
2013-03-30 10:42:00,50.0,37.0,30.22,North,0,0.0,3.0,60,0.00,,,0.00,,2013-03-30 14:42:00,
2013-03-30 10:52:00,53.0,37.0,30.21,North,0,0.0,2.0,54,0.00,,,0.00,,2013-03-30 14:52:00,
2013-03-30 11:03:00,55.0,34.0,30.21,SSE,164,1.0,5.0,45,0.00,,,0.00,,2013-03-30 15:03:00,
2013-03-30 11:12:00,55.0,34.0,30.21,SSE,164,1.0,5.0,45,0.00,,,0.00,,2013-03-30 15:12:00,
2013-03-30 11:22:00,57.0,33.0,30.21,North,0,0.0,4.0,40,0.00,,,0.00,,2013-03-30 15:22:00,
2013-03-30 11:33:00,58.0,36.0,30.20,North,0,0.0,3.0,43,0.00,,,0.00,,2013-03-30 15:33:00,
2013-03-30 11:43:00,58.0,36.0,30.20,North,0,0.0,3.0,43,0.00,,,0.00,,2013-03-30 15:43:00,
2013-03-30 11:52:00,59.0,29.0,30.19,SE,146,4.0,9.0,32,0.00,,,0.00,,2013-03-30 15:52:00,
2013-03-30 12:03:00,60.0,31.0,30.19,North,0,0.0,4.0,33,0.00,,,0.00,,2013-03-30 16:03:00,
2013-03-30 12:13:00,61.0,29.0,30.19,SSE,152,1.0,4.0,30,0.00,,,0.00,,2013-03-30 16:13:00,
2013-03-30 12:23:00,61.0,29.0,30.19,SSE,152,1.0,4.0,30,0.00,,,0.00,,2013-03-30 16:23:00,
2013-03-30 12:33:00,61.0,29.0,30.18,West,277,1.0,6.0,30,0.00,,,0.00,,2013-03-30 16:33:00,
2013-03-30 12:43:00,61.0,29.0,30.18,West,277,1.0,6.0,30,0.00,,,0.00,,2013-03-30 16:43:00,
2013-03-30 12:53:00,60.0,28.0,30.17,SE,124,1.0,7.0,30,0.00,,,0.00,,2013-03-30 16:53:00,
2013-03-30 13:02:00,61.0,30.0,30.16,SSE,152,3.0,7.0,31,0.00,,,0.00,,2013-03-30 17:02:00,
2013-03-30 13:13:00,61.0,30.0,30.16,SSE,152,3.0,7.0,31,0.00,,,0.00,,2013-03-30 17:13:00,
2013-03-30 13:23:00,63.0,31.0,30.15,South,187,1.0,4.0,30,0.00,,,0.00,,2013-03-30 17:23:00,
2013-03-30 13:32:00,62.0,30.0,30.14,SE,138,1.0,8.0,30,0.00,,,0.00,,2013-03-30 17:32:00,
2013-03-30 13:42:00,62.0,30.0,30.14,SE,138,1.0,8.0,30,0.00,,,0.00,,2013-03-30 17:42:00,
2013-03-30 13:52:00,62.0,30.0,30.13,SSE,160,4.0,9.0,30,0.00,,,0.00,,2013-03-30 17:52:00,
2013-03-30 14:03:00,63.0,31.0,30.12,SSE,166,2.0,7.0,30,0.00,,,0.00,,2013-03-30 18:03:00,
2013-03-30 14:13:00,63.0,33.0,30.12,SSE,156,2.0,8.0,32,0.00,,,0.00,,2013-03-30 18:13:00,
2013-03-30 14:22:00,63.0,33.0,30.12,SSE,156,2.0,8.0,32,0.00,,,0.00,,2013-03-30 18:22:00,
2013-03-30 14:32:00,63.0,30.0,30.12,SE,146,2.0,8.0,29,0.00,,,0.00,,2013-03-30 18:32:00,
2013-03-30 14:42:00,63.0,30.0,30.12,SE,146,2.0,8.0,29,0.00,,,0.00,,2013-03-30 18:42:00,
2013-03-30 14:53:00,63.0,30.0,30.12,NW,315,2.0,6.0,29,0.00,,,0.00,,2013-03-30 18:53:00,
2013-03-30 15:03:00,64.0,32.0,30.09,SE,146,2.0,7.0,30,0.00,,,0.00,,2013-03-30 19:03:00,
2013-03-30 15:13:00,64.0,32.0,30.09,SE,146,2.0,7.0,30,0.00,,,0.00,,2013-03-30 19:13:00,
2013-03-30 15:22:00,64.0,33.0,30.09,North,0,0.0,8.0,31,0.00,,,0.00,,2013-03-30 19:22:00,
2013-03-30 15:32:00,64.0,30.0,30.09,NNW,338,1.0,7.0,28,0.00,,,0.00,,2013-03-30 19:32:00,
2013-03-30 15:42:00,64.0,30.0,30.09,NNW,338,1.0,7.0,28,0.00,,,0.00,,2013-03-30 19:42:00,
2013-03-30 15:53:00,64.0,34.0,30.08,SSE,154,2.0,8.0,32,0.00,,,0.00,,2013-03-30 19:53:00,
2013-03-30 16:02:00,65.0,32.0,30.07,ENE,77,2.0,6.0,29,0.00,,,0.00,,2013-03-30 20:02:00,
2013-03-30 16:12:00,65.0,32.0,30.07,ENE,77,2.0,6.0,29,0.00,,,0.00,,2013-03-30 20:12:00,
2013-03-30 16:22:00,65.0,33.0,30.07,SSE,157,3.0,9.0,30,0.00,,,0.00,,2013-03-30 20:22:00,
2013-03-30 16:33:00,66.0,34.0,30.06,SSE,159,2.0,6.0,31,0.00,,,0.00,,2013-03-30 20:33:00,
2013-03-30 16:42:00,66.0,34.0,30.06,SSE,159,2.0,6.0,31,0.00,,,0.00,,2013-03-30 20:42:00,
2013-03-30 16:53:00,66.0,32.0,30.06,SSE,167,2.0,6.0,28,0.00,,,0.00,,2013-03-30 20:53:00,
2013-03-30 17:02:00,66.0,33.0,30.06,South,173,3.0,6.0,29,0.00,,,0.00,,2013-03-30 21:02:00,
2013-03-30 17:12:00,66.0,33.0,30.06,South,173,3.0,6.0,29,0.00,,,0.00,,2013-03-30 21:12:00,
2013-03-30 17:22:00,65.0,34.0,30.05,ESE,123,3.0,7.0,31,0.00,,,0.00,,2013-03-30 21:22:00,
2013-03-30 17:34:00,65.0,34.0,30.05,South,189,3.0,8.0,31,0.00,,,0.00,,2013-03-30 21:34:00,
2013-03-30 17:43:00,65.0,34.0,30.05,South,189,3.0,8.0,31,0.00,,,0.00,,2013-03-30 21:43:00,
2013-03-30 17:53:00,65.0,34.0,30.04,South,188,1.0,4.0,31,0.00,,,0.00,,2013-03-30 21:53:00,
2013-03-30 18:03:00,65.0,34.0,30.04,SE,124,2.0,8.0,32,0.00,,,0.00,,2013-03-30 22:03:00,
2013-03-30 18:13:00,65.0,34.0,30.04,SE,124,2.0,8.0,32,0.00,,,0.00,,2013-03-30 22:13:00,
2013-03-30 18:23:00,65.0,35.0,30.04,SSE,148,2.0,4.0,33,0.00,,,0.00,,2013-03-30 22:23:00,
2013-03-30 18:33:00,65.0,36.0,30.04,North,0,0.0,3.0,34,0.00,,,0.00,,2013-03-30 22:33:00,
2013-03-30 18:43:00,65.0,36.0,30.04,North,0,0.0,3.0,34,0.00,,,0.00,,2013-03-30 22:43:00,
2013-03-30 18:53:00,64.0,37.0,30.05,North,0,0.0,6.0,37,0.00,,,0.00,,2013-03-30 22:53:00,
2013-03-30 19:02:00,63.0,36.0,30.05,North,0,0.0,0.0,37,0.00,,,0.00,,2013-03-30 23:02:00,
2013-03-30 19:13:00,63.0,36.0,30.05,North,0,0.0,0.0,37,0.00,,,0.00,,2013-03-30 23:13:00,
2013-03-30 19:22:00,63.0,39.0,30.05,North,0,0.0,0.0,41,0.00,,,0.00,,2013-03-30 23:22:00,
2013-03-30 19:33:00,61.0,41.0,30.05,North,0,0.0,0.0,47,0.00,,,0.00,,2013-03-30 23:33:00,
2013-03-30 19:42:00,61.0,41.0,30.05,North,0,0.0,0.0,47,0.00,,,0.00,,2013-03-30 23:42:00,
2013-03-30 19:52:00,58.0,40.0,30.06,North,0,0.0,0.0,51,0.00,,,0.00,,2013-03-30 23:52:00,
2013-03-30 20:03:00,57.0,41.0,30.06,North,0,0.0,0.0,56,0.00,,,0.00,,2013-03-31 00:03:00,
2013-03-30 20:12:00,57.0,41.0,30.06,North,0,0.0,0.0,56,0.00,,,0.00,,2013-03-31 00:12:00,
2013-03-30 20:22:00,56.0,42.0,30.06,North,0,0.0,0.0,60,0.00,,,0.00,,2013-03-31 00:22:00,
2013-03-30 20:32:00,54.0,41.0,30.06,North,0,0.0,0.0,61,0.00,,,0.00,,2013-03-31 00:32:00,
2013-03-30 20:42:00,54.0,41.0,30.06,North,0,0.0,0.0,61,0.00,,,0.00,,2013-03-31 00:42:00,
2013-03-30 20:52:00,53.0,42.0,30.07,North,0,0.0,0.0,65,0.00,,,0.00,,2013-03-31 00:52:00,
2013-03-30 21:02:00,52.0,42.0,30.07,North,0,0.0,0.0,68,0.00,,,0.00,,2013-03-31 01:02:00,
2013-03-30 21:12:00,52.0,42.0,30.07,North,0,0.0,0.0,68,0.00,,,0.00,,2013-03-31 01:12:00,
2013-03-30 21:22:00,51.0,42.0,30.07,North,0,0.0,0.0,71,0.00,,,0.00,,2013-03-31 01:22:00,
2013-03-30 21:32:00,50.0,41.0,30.07,North,0,0.0,0.0,72,0.00,,,0.00,,2013-03-31 01:32:00,
2013-03-30 21:42:00,50.0,41.0,30.07,North,0,0.0,0.0,72,0.00,,,0.00,,2013-03-31 01:42:00,
2013-03-30 21:52:00,50.0,42.0,30.07,North,0,0.0,0.0,74,0.00,,,0.00,,2013-03-31 01:52:00,
2013-03-30 22:02:00,49.0,41.0,30.07,North,0,0.0,0.0,75,0.00,,,0.00,,2013-03-31 02:02:00,
2013-03-30 22:13:00,49.0,41.0,30.07,North,0,0.0,0.0,75,0.00,,,0.00,,2013-03-31 02:13:00,
2013-03-30 22:22:00,49.0,42.0,30.07,North,0,0.0,0.0,76,0.00,,,0.00,,2013-03-31 02:22:00,
2013-03-30 22:32:00,48.0,41.0,30.07,North,0,0.0,0.0,78,0.00,,,0.00,,2013-03-31 02:32:00,
2013-03-30 22:43:00,48.0,41.0,30.07,North,0,0.0,0.0,78,0.00,,,0.00,,2013-03-31 02:43:00,
2013-03-30 22:52:00,48.0,42.0,30.07,North,0,0.0,0.0,81,0.00,,,0.00,,2013-03-31 02:52:00,
2013-03-30 23:02:00,47.0,41.0,30.07,North,0,0.0,0.0,80,0.00,,,0.00,,2013-03-31 03:02:00,
2013-03-30 23:12:00,47.0,41.0,30.07,North,0,0.0,0.0,80,0.00,,,0.00,,2013-03-31 03:12:00,
2013-03-30 23:22:00,47.0,41.0,30.07,North,0,0.0,0.0,80,0.00,,,0.00,,2013-03-31 03:22:00,
2013-03-30 23:33:00,47.0,41.0,30.07,North,0,0.0,0.0,81,0.00,,,0.00,,2013-03-31 03:33:00,
2013-03-30 23:43:00,47.0,41.0,30.07,North,0,0.0,0.0,81,0.00,,,0.00,,2013-03-31 03:43:00,
2013-03-30 23:53:00,47.0,41.0,30.07,North,0,0.0,0.0,81,0.00,,,0.00,,2013-03-31 03:53:00,